Decoded Metar for KOIN (OBERLIN in KS, USA) (IATA:OIN) | Meteo·Mobile Aviation Weather
aviador You're here:

KOIN Decoded Metar

OBERLIN in KS, USA
Report Time2019-03-22 09:55:00
UTC Time2019-03-22 10:11:08
Flight Rules vfr VFR
Wind220° at 04 kt
W.Decomp.*RWY 17: 3.0 kt HW 2.6 kt RCW
RWY 30: 0.1 kt HW 4 kt LCW
Visibility9999 m
Phenomena:N/A
Clouds:Scattered 080 Hf
Expected CloudBase > 1,200 ft AGL from Temp-Dew spread
CeilingNone
Temp03°C (ISA -7)
Dew Point00°C (81% RH)
AAT-0.4°C
QNH1021 hPa
Density Alt1,726 ft
Elevation2,703 ft
Report Wrong Elevation
Raw Report
KOIN 220955Z AUTO 22004KT 10SM SCT080 03/00 A3015 RMK AO1
T00321001=

Extra information for KOIN:More info

Airport Information Weather charts Add Link Nearby Venues Social comments

AIRNAV info for KOIN